sensor_id;sensor_type;location;lat;lon;timestamp;pressure;altitude;pressure_sealevel;temperature;humidity
68193;BME280;55012;47.562;18.414;2023-02-23T00:00:28;98350.84;;;8.58;100.00
68193;BME280;55012;47.562;18.414;2023-02-23T00:02:55;98351.28;;;8.60;100.00
68193;BME280;55012;47.562;18.414;2023-02-23T00:05:24;98346.25;;;8.58;100.00
68193;BME280;55012;47.562;18.414;2023-02-23T00:07:50;98347.72;;;8.56;100.00
68193;BME280;55012;47.562;18.414;2023-02-23T00:10:17;98347.78;;;8.59;100.00
68193;BME280;55012;47.562;18.414;2023-02-23T00:12:44;98340.84;;;8.58;100.00
68193;BME280;55012;47.562;18.414;2023-02-23T00:15:10;98341.13;;;8.53;100.00
68193;BME280;55012;47.562;18.414;2023-02-23T00:17:36;98345.31;;;8.51;100.00
68193;BME280;55012;47.562;18.414;2023-02-23T00:20:03;98343.31;;;8.48;100.00
68193;BME280;55012;47.562;18.414;2023-02-23T00:22:32;98345.25;;;8.47;100.00
68193;BME280;55012;47.562;18.414;2023-02-23T00:24:58;98347.06;;;8.43;100.00
68193;BME280;55012;47.562;18.414;2023-02-23T00:27:24;98349.06;;;8.46;100.00
68193;BME280;55012;47.562;18.414;2023-02-23T00:29:49;98354.09;;;8.48;100.00
68193;BME280;55012;47.562;18.414;2023-02-23T00:32:15;98347.56;;;8.49;100.00
68193;BME280;55012;47.562;18.414;2023-02-23T00:34:45;98352.97;;;8.49;100.00
68193;BME280;55012;47.562;18.414;2023-02-23T00:37:13;98356.78;;;8.48;100.00
68193;BME280;55012;47.562;18.414;2023-02-23T00:39:39;98356.38;;;8.46;100.00
68193;BME280;55012;47.562;18.414;2023-02-23T00:42:04;98362.13;;;8.44;100.00
68193;BME280;55012;47.562;18.414;2023-02-23T00:44:31;98359.75;;;8.42;100.00
68193;BME280;55012;47.562;18.414;2023-02-23T00:46:59;98356.28;;;8.42;100.00
68193;BME280;55012;47.562;18.414;2023-02-23T00:49:25;98357.84;;;8.43;100.00
68193;BME280;55012;47.562;18.414;2023-02-23T00:51:51;98357.84;;;8.43;100.00
68193;BME280;55012;47.562;18.414;2023-02-23T00:54:18;98360.13;;;8.41;100.00
68193;BME280;55012;47.562;18.414;2023-02-23T00:56:44;98360.88;;;8.41;100.00
68193;BME280;55012;47.562;18.414;2023-02-23T00:59:11;98355.50;;;8.41;100.00
68193;BME280;55012;47.562;18.414;2023-02-23T01:01:38;98353.88;;;8.37;100.00
68193;BME280;55012;47.562;18.414;2023-02-23T01:04:06;98362.28;;;8.35;100.00
68193;BME280;55012;47.562;18.414;2023-02-23T01:06:32;98361.00;;;8.29;100.00
68193;BME280;55012;47.562;18.414;2023-02-23T01:08:58;98358.97;;;8.26;100.00
68193;BME280;55012;47.562;18.414;2023-02-23T01:11:26;98360.88;;;8.26;100.00
68193;BME280;55012;47.562;18.414;2023-02-23T01:13:55;98357.78;;;8.24;100.00
68193;BME280;55012;47.562;18.414;2023-02-23T01:16:23;98361.25;;;8.24;100.00
68193;BME280;55012;47.562;18.414;2023-02-23T01:18:52;98354.66;;;8.22;100.00
68193;BME280;55012;47.562;18.414;2023-02-23T01:21:21;98365.06;;;8.23;100.00
68193;BME280;55012;47.562;18.414;2023-02-23T01:23:49;98367.78;;;8.23;100.00
68193;BME280;55012;47.562;18.414;2023-02-23T01:28:41;98365.50;;;8.25;100.00
68193;BME280;55012;47.562;18.414;2023-02-23T01:31:08;98358.56;;;8.24;100.00
68193;BME280;55012;47.562;18.414;2023-02-23T01:33:33;98344.56;;;8.18;100.00
68193;BME280;55012;47.562;18.414;2023-02-23T01:35:59;98346.94;;;8.20;100.00
68193;BME280;55012;47.562;18.414;2023-02-23T01:38:24;98347.72;;;8.21;100.00
68193;BME280;55012;47.562;18.414;2023-02-23T01:40:50;98352.31;;;8.20;100.00
68193;BME280;55012;47.562;18.414;2023-02-23T01:43:18;98348.38;;;8.17;100.00
68193;BME280;55012;47.562;18.414;2023-02-23T01:45:53;98345.69;;;8.17;100.00
68193;BME280;55012;47.562;18.414;2023-02-23T01:48:35;98345.63;;;8.14;100.00
68193;BME280;55012;47.562;18.414;2023-02-23T01:51:16;98344.75;;;8.10;100.00
68193;BME280;55012;47.562;18.414;2023-02-23T01:53:47;98341.97;;;8.06;100.00
68193;BME280;55012;47.562;18.414;2023-02-23T01:56:23;98347.38;;;8.06;100.00
68193;BME280;55012;47.562;18.414;2023-02-23T01:58:54;98338.50;;;8.06;100.00
68193;BME280;55012;47.562;18.414;2023-02-23T02:01:21;98345.38;;;8.03;100.00
68193;BME280;55012;47.562;18.414;2023-02-23T02:04:01;98342.59;;;8.00;100.00
68193;BME280;55012;47.562;18.414;2023-02-23T02:06:30;98344.88;;;7.98;100.00
68193;BME280;55012;47.562;18.414;2023-02-23T02:09:06;98340.78;;;8.04;100.00
68193;BME280;55012;47.562;18.414;2023-02-23T02:11:35;98344.16;;;8.01;100.00
68193;BME280;55012;47.562;18.414;2023-02-23T02:14:12;98343.72;;;7.99;100.00
68193;BME280;55012;47.562;18.414;2023-02-23T02:16:59;98343.78;;;8.02;100.00
68193;BME280;55012;47.562;18.414;2023-02-23T02:19:49;98343.47;;;8.04;100.00
68193;BME280;55012;47.562;18.414;2023-02-23T02:31:17;98344.88;;;7.98;100.00
68193;BME280;55012;47.562;18.414;2023-02-23T02:37:07;98344.69;;;7.91;100.00
68193;BME280;55012;47.562;18.414;2023-02-23T02:42:49;98344.50;;;7.83;100.00
68193;BME280;55012;47.562;18.414;2023-02-23T02:56:03;98359.34;;;7.77;100.00
68193;BME280;55012;47.562;18.414;2023-02-23T02:58:30;98363.97;;;7.77;100.00
68193;BME280;55012;47.562;18.414;2023-02-23T03:01:06;98363.53;;;7.75;100.00
68193;BME280;55012;47.562;18.414;2023-02-23T03:03:51;98364.75;;;7.77;100.00
68193;BME280;55012;47.562;18.414;2023-02-23T03:06:47;98363.97;;;7.77;100.00
68193;BME280;55012;47.562;18.414;2023-02-23T03:09:39;98361.38;;;7.80;100.00
68193;BME280;55012;47.562;18.414;2023-02-23T03:15:59;98352.41;;;7.76;100.00
68193;BME280;55012;47.562;18.414;2023-02-23T03:21:53;98356.34;;;7.63;100.00
68193;BME280;55012;47.562;18.414;2023-02-23T03:24:47;98370.91;;;7.62;100.00
68193;BME280;55012;47.562;18.414;2023-02-23T03:30:34;98368.63;;;7.48;100.00
68193;BME280;55012;47.562;18.414;2023-02-23T03:33:36;98379.75;;;7.47;100.00
68193;BME280;55012;47.562;18.414;2023-02-23T03:36:26;98383.13;;;7.44;100.00
68193;BME280;55012;47.562;18.414;2023-02-23T03:39:25;98384.72;;;7.45;100.00
68193;BME280;55012;47.562;18.414;2023-02-23T03:42:18;98387.81;;;7.47;100.00
68193;BME280;55012;47.562;18.414;2023-02-23T03:45:08;98384.34;;;7.46;100.00
68193;BME280;55012;47.562;18.414;2023-02-23T03:47:55;98388.06;;;7.42;100.00
68193;BME280;55012;47.562;18.414;2023-02-23T03:50:43;98389.78;;;7.34;100.00
68193;BME280;55012;47.562;18.414;2023-02-23T03:53:34;98386.22;;;7.30;100.00
68193;BME280;55012;47.562;18.414;2023-02-23T03:56:25;98392.75;;;7.29;100.00
68193;BME280;55012;47.562;18.414;2023-02-23T03:59:12;98389.94;;;7.25;100.00
68193;BME280;55012;47.562;18.414;2023-02-23T04:01:58;98395.22;;;7.22;100.00
68193;BME280;55012;47.562;18.414;2023-02-23T04:04:45;98398.06;;;7.13;100.00
68193;BME280;55012;47.562;18.414;2023-02-23T04:07:30;98393.25;;;7.07;100.00
68193;BME280;55012;47.562;18.414;2023-02-23T04:10:14;98393.50;;;7.01;100.00
68193;BME280;55012;47.562;18.414;2023-02-23T04:18:20;98392.63;;;6.97;100.00
68193;BME280;55012;47.562;18.414;2023-02-23T04:20:47;98393.28;;;6.94;100.00
68193;BME280;55012;47.562;18.414;2023-02-23T04:23:13;98385.56;;;6.93;100.00
68193;BME280;55012;47.562;18.414;2023-02-23T04:25:38;98393.63;;;6.93;100.00
68193;BME280;55012;47.562;18.414;2023-02-23T04:28:04;98389.72;;;6.90;100.00
68193;BME280;55012;47.562;18.414;2023-02-23T04:30:29;98388.19;;;6.89;100.00
68193;BME280;55012;47.562;18.414;2023-02-23T04:32:55;98392.31;;;6.87;100.00
68193;BME280;55012;47.562;18.414;2023-02-23T04:35:21;98387.63;;;6.84;100.00
68193;BME280;55012;47.562;18.414;2023-02-23T04:37:46;98391.22;;;6.88;100.00
68193;BME280;55012;47.562;18.414;2023-02-23T04:40:12;98389.72;;;6.90;100.00
68193;BME280;55012;47.562;18.414;2023-02-23T04:42:39;98384.78;;;6.92;100.00
68193;BME280;55012;47.562;18.414;2023-02-23T04:45:05;98391.38;;;6.95;100.00
68193;BME280;55012;47.562;18.414;2023-02-23T04:47:31;98386.81;;;6.95;100.00
68193;BME280;55012;47.562;18.414;2023-02-23T04:49:56;98387.59;;;6.96;100.00
68193;BME280;55012;47.562;18.414;2023-02-23T04:52:22;98384.78;;;6.92;100.00
68193;BME280;55012;47.562;18.414;2023-02-23T04:54:47;98378.97;;;6.90;100.00
68193;BME280;55012;47.562;18.414;2023-02-23T04:57:13;98382.78;;;6.89;100.00
68193;BME280;55012;47.562;18.414;2023-02-23T04:59:38;98384.25;;;6.87;100.00
68193;BME280;55012;47.562;18.414;2023-02-23T05:02:04;98378.09;;;6.86;100.00
68193;BME280;55012;47.562;18.414;2023-02-23T05:04:30;98374.63;;;6.86;100.00
68193;BME280;55012;47.562;18.414;2023-02-23T05:06:56;98378.78;;;6.83;100.00
68193;BME280;55012;47.562;18.414;2023-02-23T05:09:22;98381.47;;;6.83;100.00
68193;BME280;55012;47.562;18.414;2023-02-23T05:11:47;98381.81;;;6.82;100.00
68193;BME280;55012;47.562;18.414;2023-02-23T05:14:12;98383.38;;;6.83;100.00
68193;BME280;55012;47.562;18.414;2023-02-23T05:16:39;98381.38;;;6.80;100.00
68193;BME280;55012;47.562;18.414;2023-02-23T05:19:05;98374.75;;;6.77;100.00
68193;BME280;55012;47.562;18.414;2023-02-23T05:21:30;98380.81;;;6.74;100.00
68193;BME280;55012;47.562;18.414;2023-02-23T05:23:56;98380.25;;;6.68;100.00
68193;BME280;55012;47.562;18.414;2023-02-23T05:26:22;98385.53;;;6.65;100.00
68193;BME280;55012;47.562;18.414;2023-02-23T05:28:48;98392.38;;;6.62;100.00
68193;BME280;55012;47.562;18.414;2023-02-23T05:31:13;98390.81;;;6.61;100.00
68193;BME280;55012;47.562;18.414;2023-02-23T05:33:39;98394.16;;;6.58;100.00
68193;BME280;55012;47.562;18.414;2023-02-23T05:36:11;98399.88;;;6.57;100.00
68193;BME280;55012;47.562;18.414;2023-02-23T05:38:38;98407.81;;;6.53;100.00
68193;BME280;55012;47.562;18.414;2023-02-23T05:41:10;98404.03;;;6.54;100.00
68193;BME280;55012;47.562;18.414;2023-02-23T05:43:35;98411.41;;;6.57;100.00
68193;BME280;55012;47.562;18.414;2023-02-23T05:46:05;98409.84;;;6.56;100.00
68193;BME280;55012;47.562;18.414;2023-02-23T05:48:31;98408.72;;;6.57;100.00
68193;BME280;55012;47.562;18.414;2023-02-23T05:51:03;98416.78;;;6.57;100.00
68193;BME280;55012;47.562;18.414;2023-02-23T05:53:29;98418.69;;;6.57;100.00
68193;BME280;55012;47.562;18.414;2023-02-23T05:55:55;98432.91;;;6.57;100.00
68193;BME280;55012;47.562;18.414;2023-02-23T05:58:21;98435.59;;;6.57;100.00
68193;BME280;55012;47.562;18.414;2023-02-23T06:00:46;98433.69;;;6.58;100.00
68193;BME280;55012;47.562;18.414;2023-02-23T06:03:11;98433.34;;;6.59;100.00
68193;BME280;55012;47.562;18.414;2023-02-23T06:05:37;98436.94;;;6.63;100.00
68193;BME280;55012;47.562;18.414;2023-02-23T06:08:02;98447.34;;;6.65;100.00
68193;BME280;55012;47.562;18.414;2023-02-23T06:10:28;98440.50;;;6.67;100.00
68193;BME280;55012;47.562;18.414;2023-02-23T06:12:53;98441.72;;;6.70;100.00
68193;BME280;55012;47.562;18.414;2023-02-23T06:15:19;98450.25;;;6.72;100.00
68193;BME280;55012;47.562;18.414;2023-02-23T06:17:44;98448.09;;;6.78;100.00
68193;BME280;55012;47.562;18.414;2023-02-23T06:20:10;98452.81;;;6.81;100.00
68193;BME280;55012;47.562;18.414;2023-02-23T06:22:36;98458.28;;;6.84;100.00
68193;BME280;55012;47.562;18.414;2023-02-23T06:25:01;98448.88;;;6.90;100.00
68193;BME280;55012;47.562;18.414;2023-02-23T06:27:30;98455.81;;;6.91;100.00
68193;BME280;55012;47.562;18.414;2023-02-23T06:29:56;98450.22;;;6.96;100.00
68193;BME280;55012;47.562;18.414;2023-02-23T06:32:21;98454.56;;;7.01;100.00
68193;BME280;55012;47.562;18.414;2023-02-23T06:34:46;98450.44;;;7.03;100.00
68193;BME280;55012;47.562;18.414;2023-02-23T06:37:12;98449.41;;;7.08;100.00
68193;BME280;55012;47.562;18.414;2023-02-23T06:39:37;98448.19;;;7.06;100.00
68193;BME280;55012;47.562;18.414;2023-02-23T06:42:03;98450.63;;;7.11;100.00
68193;BME280;55012;47.562;18.414;2023-02-23T06:44:28;98445.16;;;7.07;100.00
68193;BME280;55012;47.562;18.414;2023-02-23T06:46:54;98448.41;;;7.00;100.00
68193;BME280;55012;47.562;18.414;2023-02-23T06:49:19;98448.41;;;7.00;100.00
68193;BME280;55012;47.562;18.414;2023-02-23T06:51:44;98448.28;;;7.09;100.00
68193;BME280;55012;47.562;18.414;2023-02-23T06:54:10;98445.16;;;7.07;100.00
68193;BME280;55012;47.562;18.414;2023-02-23T06:56:35;98442.53;;;7.11;100.00
68193;BME280;55012;47.562;18.414;2023-02-23T06:59:01;98449.38;;;7.20;100.00
68193;BME280;55012;47.562;18.414;2023-02-23T07:01:26;98453.84;;;7.28;100.00
68193;BME280;55012;47.562;18.414;2023-02-23T07:03:52;98443.16;;;7.32;100.00
68193;BME280;55012;47.562;18.414;2023-02-23T07:06:17;98449.56;;;7.27;100.00
68193;BME280;55012;47.562;18.414;2023-02-23T07:08:43;98451.56;;;7.30;100.00
68193;BME280;55012;47.562;18.414;2023-02-23T07:11:11;98441.59;;;7.31;100.00
68193;BME280;55012;47.562;18.414;2023-02-23T07:13:38;98446.41;;;7.38;100.00
68193;BME280;55012;47.562;18.414;2023-02-23T07:16:04;98446.59;;;7.45;100.00
68193;BME280;55012;47.562;18.414;2023-02-23T07:18:30;98445.00;;;7.44;100.00
68193;BME280;55012;47.562;18.414;2023-02-23T07:20:56;98450.38;;;7.44;100.00
68193;BME280;55012;47.562;18.414;2023-02-23T07:23:21;98447.91;;;7.51;100.00
68193;BME280;55012;47.562;18.414;2023-02-23T07:25:49;98443.91;;;7.60;100.00
68193;BME280;55012;47.562;18.414;2023-02-23T07:28:15;98441.78;;;7.66;100.00
68193;BME280;55012;47.562;18.414;2023-02-23T07:30:40;98426.50;;;7.70;100.00
68193;BME280;55012;47.562;18.414;2023-02-23T07:33:06;98437.44;;;7.77;100.00
68193;BME280;55012;47.562;18.414;2023-02-23T07:35:32;98430.69;;;7.83;100.00
68193;BME280;55012;47.562;18.414;2023-02-23T07:37:57;98439.88;;;7.82;100.00
68193;BME280;55012;47.562;18.414;2023-02-23T07:40:23;98422.34;;;7.88;100.00
68193;BME280;55012;47.562;18.414;2023-02-23T07:42:50;98431.63;;;7.91;100.00
68193;BME280;55012;47.562;18.414;2023-02-23T07:45:15;98419.50;;;7.97;100.00
68193;BME280;55012;47.562;18.414;2023-02-23T07:47:41;98421.66;;;7.92;100.00
68193;BME280;55012;47.562;18.414;2023-02-23T07:50:07;98424.88;;;7.81;100.00
68193;BME280;55012;47.562;18.414;2023-02-23T07:52:35;98434.75;;;7.77;100.00
68193;BME280;55012;47.562;18.414;2023-02-23T07:55:01;98436.41;;;7.82;100.00
68193;BME280;55012;47.562;18.414;2023-02-23T07:57:26;98432.22;;;7.84;100.00
68193;BME280;55012;47.562;18.414;2023-02-23T07:59:52;98432.94;;;7.81;100.00
68193;BME280;55012;47.562;18.414;2023-02-23T08:02:20;98428.69;;;7.80;100.00
68193;BME280;55012;47.562;18.414;2023-02-23T08:04:45;98438.50;;;7.88;100.00
68193;BME280;55012;47.562;18.414;2023-02-23T08:07:12;98439.72;;;7.91;100.00
68193;BME280;55012;47.562;18.414;2023-02-23T08:09:37;98441.88;;;7.85;100.00
68193;BME280;55012;47.562;18.414;2023-02-23T08:12:03;98444.66;;;7.73;100.00
68193;BME280;55012;47.562;18.414;2023-02-23T08:14:28;98448.63;;;7.64;100.00
68193;BME280;55012;47.562;18.414;2023-02-23T08:16:54;98451.50;;;7.71;100.00
68193;BME280;55012;47.562;18.414;2023-02-23T08:19:20;98451.50;;;7.71;100.00
68193;BME280;55012;47.562;18.414;2023-02-23T08:21:49;98453.28;;;7.79;100.00
68193;BME280;55012;47.562;18.414;2023-02-23T08:24:15;98451.97;;;7.88;100.00
68193;BME280;55012;47.562;18.414;2023-02-23T08:26:41;98444.09;;;7.96;100.00
68193;BME280;55012;47.562;18.414;2023-02-23T08:29:07;98448.94;;;8.06;100.00
68193;BME280;55012;47.562;18.414;2023-02-23T08:31:33;98444.88;;;8.12;100.00
68193;BME280;55012;47.562;18.414;2023-02-23T08:33:59;98437.75;;;8.20;100.00
68193;BME280;55012;47.562;18.414;2023-02-23T08:36:25;98430.53;;;8.24;100.00
68193;BME280;55012;47.562;18.414;2023-02-23T08:38:50;98430.34;;;8.32;100.00
68193;BME280;55012;47.562;18.414;2023-02-23T08:41:19;98434.91;;;8.44;100.00
68193;BME280;55012;47.562;18.414;2023-02-23T08:43:45;98432.78;;;8.53;100.00
68193;BME280;55012;47.562;18.414;2023-02-23T08:46:10;98423.38;;;8.63;100.00
68193;BME280;55012;47.562;18.414;2023-02-23T08:48:36;98424.16;;;8.63;100.00
68193;BME280;55012;47.562;18.414;2023-02-23T08:51:03;98424.00;;;8.56;100.00
68193;BME280;55012;47.562;18.414;2023-02-23T08:53:29;98426.34;;;8.58;100.00
68193;BME280;55012;47.562;18.414;2023-02-23T08:55:56;98430.31;;;8.64;100.00
68193;BME280;55012;47.562;18.414;2023-02-23T08:58:22;98419.09;;;8.78;100.00
68193;BME280;55012;47.562;18.414;2023-02-23T09:00:47;98428.09;;;8.85;100.00
68193;BME280;55012;47.562;18.414;2023-02-23T09:03:13;98421.72;;;8.93;100.00
68193;BME280;55012;47.562;18.414;2023-02-23T09:05:38;98415.63;;;8.96;100.00
68193;BME280;55012;47.562;18.414;2023-02-23T09:08:04;98417.97;;;8.98;100.00
68193;BME280;55012;47.562;18.414;2023-02-23T09:10:29;98417.75;;;9.07;100.00
68193;BME280;55012;47.562;18.414;2023-02-23T09:12:56;98410.94;;;9.13;100.00
68193;BME280;55012;47.562;18.414;2023-02-23T09:15:21;98412.13;;;9.15;100.00
68193;BME280;55012;47.562;18.414;2023-02-23T09:17:47;98419.25;;;9.23;100.00
68193;BME280;55012;47.562;18.414;2023-02-23T09:20:14;98409.09;;;9.36;100.00
68193;BME280;55012;47.562;18.414;2023-02-23T09:22:44;98416.88;;;9.41;100.00
68193;BME280;55012;47.562;18.414;2023-02-23T09:25:14;98404.66;;;9.47;100.00
68193;BME280;55012;47.562;18.414;2023-02-23T09:27:44;98382.47;;;9.57;100.00
68193;BME280;55012;47.562;18.414;2023-02-23T09:30:10;98380.63;;;9.62;100.00
68193;BME280;55012;47.562;18.414;2023-02-23T09:32:43;98373.72;;;9.64;100.00
68193;BME280;55012;47.562;18.414;2023-02-23T09:35:09;98372.59;;;9.65;100.00
68193;BME280;55012;47.562;18.414;2023-02-23T09:37:35;98364.25;;;9.74;100.00
68193;BME280;55012;47.562;18.414;2023-02-23T09:40:00;98348.41;;;9.72;100.00
68193;BME280;55012;47.562;18.414;2023-02-23T09:43:18;98355.78;;;9.52;100.00
68193;BME280;55012;47.562;18.414;2023-02-23T09:48:05;98350.44;;;9.56;100.00
68193;BME280;55012;47.562;18.414;2023-02-23T09:50:36;98345.16;;;9.63;100.00
68193;BME280;55012;47.562;18.414;2023-02-23T09:55:38;98319.72;;;9.87;100.00
68193;BME280;55012;47.562;18.414;2023-02-23T09:58:20;98325.56;;;9.93;100.00
68193;BME280;55012;47.562;18.414;2023-02-23T10:03:38;98315.34;;;10.05;100.00
68193;BME280;55012;47.562;18.414;2023-02-23T10:06:08;98302.31;;;10.11;100.00
68193;BME280;55012;47.562;18.414;2023-02-23T10:22:01;98318.19;;;9.90;100.00
68193;BME280;55012;47.562;18.414;2023-02-23T10:24:36;98311.75;;;9.98;100.00
68193;BME280;55012;47.562;18.414;2023-02-23T10:29:34;98310.00;;;10.09;100.00
68193;BME280;55012;47.562;18.414;2023-02-23T10:32:05;98312.66;;;10.05;100.00
68193;BME280;55012;47.562;18.414;2023-02-23T10:34:32;98314.34;;;10.17;100.00
68193;BME280;55012;47.562;18.414;2023-02-23T10:37:00;98305.41;;;10.36;100.00
68193;BME280;55012;47.562;18.414;2023-02-23T10:39:28;98305.44;;;10.39;100.00
68193;BME280;55012;47.562;18.414;2023-02-23T10:41:56;98298.44;;;10.35;100.00
68193;BME280;55012;47.562;18.414;2023-02-23T10:44:24;98288.84;;;10.41;100.00
68193;BME280;55012;47.562;18.414;2023-02-23T10:46:57;98275.47;;;10.52;100.00
68193;BME280;55012;47.562;18.414;2023-02-23T10:49:38;98256.63;;;10.59;100.00
68193;BME280;55012;47.562;18.414;2023-02-23T10:52:04;98245.38;;;10.53;100.00
68193;BME280;55012;47.562;18.414;2023-02-23T10:57:00;98217.91;;;10.85;100.00
68193;BME280;55012;47.562;18.414;2023-02-23T10:59:25;98205.88;;;10.82;100.00
68193;BME280;55012;47.562;18.414;2023-02-23T11:01:52;98210.56;;;10.85;100.00
68193;BME280;55012;47.562;18.414;2023-02-23T11:04:23;98194.28;;;10.82;100.00
68193;BME280;55012;47.562;18.414;2023-02-23T11:06:49;98185.44;;;10.85;100.00
68193;BME280;55012;47.562;18.414;2023-02-23T11:12:00;98169.31;;;10.99;100.00
68193;BME280;55012;47.562;18.414;2023-02-23T11:14:28;98169.66;;;10.94;100.00
68193;BME280;55012;47.562;18.414;2023-02-23T11:16:57;98166.19;;;10.93;100.00
68193;BME280;55012;47.562;18.414;2023-02-23T11:19:28;98146.03;;;10.91;100.00
68193;BME280;55012;47.562;18.414;2023-02-23T11:21:57;98154.06;;;10.77;100.00
68193;BME280;55012;47.562;18.414;2023-02-23T11:24:27;98156.22;;;10.64;100.00
68193;BME280;55012;47.562;18.414;2023-02-23T11:26:58;98159.22;;;10.52;100.00
68193;BME280;55012;47.562;18.414;2023-02-23T11:32:26;98161.25;;;10.62;100.00
68193;BME280;55012;47.562;18.414;2023-02-23T11:37:44;98143.19;;;10.73;100.00
68193;BME280;55012;47.562;18.414;2023-02-23T11:43:14;98147.44;;;10.74;100.00
68193;BME280;55012;47.562;18.414;2023-02-23T11:45:46;98140.09;;;10.75;100.00
68193;BME280;55012;47.562;18.414;2023-02-23T11:48:30;98138.75;;;10.54;100.00
68193;BME280;55012;47.562;18.414;2023-02-23T11:50:57;98142.53;;;10.46;100.00
68193;BME280;55012;47.562;18.414;2023-02-23T11:53:31;98150.88;;;10.34;100.00
68193;BME280;55012;47.562;18.414;2023-02-23T11:56:01;98152.94;;;10.44;100.00
68193;BME280;55012;47.562;18.414;2023-02-23T11:58:41;98145.72;;;10.55;100.00
68193;BME280;55012;47.562;18.414;2023-02-23T12:01:10;98129.16;;;10.60;100.00
68193;BME280;55012;47.562;18.414;2023-02-23T12:03:44;98136.44;;;10.53;100.00
68193;BME280;55012;47.562;18.414;2023-02-23T12:06:24;98134.19;;;10.62;100.00
68193;BME280;55012;47.562;18.414;2023-02-23T12:08:52;98128.41;;;10.63;100.00
68193;BME280;55012;47.562;18.414;2023-02-23T12:11:25;98131.59;;;10.73;100.00
68193;BME280;55012;47.562;18.414;2023-02-23T12:14:06;98125.88;;;10.81;100.00
68193;BME280;55012;47.562;18.414;2023-02-23T12:16:42;98107.31;;;10.83;100.00
68193;BME280;55012;47.562;18.414;2023-02-23T12:19:30;98104.19;;;10.78;100.00
68193;BME280;55012;47.562;18.414;2023-02-23T12:22:11;98113.13;;;10.82;100.00
68193;BME280;55012;47.562;18.414;2023-02-23T12:24:55;98112.00;;;10.86;100.00
68193;BME280;55012;47.562;18.414;2023-02-23T12:27:29;98118.13;;;10.80;100.00
68193;BME280;55012;47.562;18.414;2023-02-23T12:30:22;98102.91;;;10.61;100.00
68193;BME280;55012;47.562;18.414;2023-02-23T12:33:02;98111.03;;;10.64;100.00
68193;BME280;55012;47.562;18.414;2023-02-23T12:41:11;98094.88;;;11.19;100.00
68193;BME280;55012;47.562;18.414;2023-02-23T12:43:47;98081.06;;;11.39;100.00
68193;BME280;55012;47.562;18.414;2023-02-23T12:46:30;98069.94;;;11.58;100.00
68193;BME280;55012;47.562;18.414;2023-02-23T12:49:02;98069.50;;;11.49;100.00
68193;BME280;55012;47.562;18.414;2023-02-23T12:54:00;98097.44;;;11.60;100.00
68193;BME280;55012;47.562;18.414;2023-02-23T13:01:58;98102.34;;;11.40;100.00
68193;BME280;55012;47.562;18.414;2023-02-23T13:12:54;98068.25;;;11.32;100.00
68193;BME280;55012;47.562;18.414;2023-02-23T13:16:08;98059.38;;;11.35;100.00
68193;BME280;55012;47.562;18.414;2023-02-23T13:18:27;98050.19;;;11.54;100.00
68193;BME280;55012;47.562;18.414;2023-02-23T13:21:01;98027.03;;;11.74;100.00
68193;BME280;55012;47.562;18.414;2023-02-23T13:23:34;98012.84;;;11.92;100.00
68193;BME280;55012;47.562;18.414;2023-02-23T13:28:55;97998.16;;;12.14;100.00
68193;BME280;55012;47.562;18.414;2023-02-23T13:31:26;97986.56;;;12.28;100.00
68193;BME280;55012;47.562;18.414;2023-02-23T13:33:56;97980.34;;;12.45;100.00
68193;BME280;55012;47.562;18.414;2023-02-23T13:36:23;97967.19;;;12.47;100.00
68193;BME280;55012;47.562;18.414;2023-02-23T13:44:38;98005.56;;;12.67;100.00
68193;BME280;55012;47.562;18.414;2023-02-23T13:49:54;98268.41;;;12.86;100.00
68193;BME280;55012;47.562;18.414;2023-02-23T13:52:38;98258.41;;;13.08;100.00
68193;BME280;55012;47.562;18.414;2023-02-23T13:57:53;98287.06;;;12.99;100.00
68193;BME280;55012;47.562;18.414;2023-02-23T14:00:20;98283.97;;;12.93;100.00
68193;BME280;55012;47.562;18.414;2023-02-23T14:02:46;98281.56;;;12.81;100.00
68193;BME280;55012;47.562;18.414;2023-02-23T14:05:21;98267.59;;;12.72;100.00
68193;BME280;55012;47.562;18.414;2023-02-23T14:07:54;98272.56;;;12.52;100.00
68193;BME280;55012;47.562;18.414;2023-02-23T14:10:42;98266.97;;;12.23;100.00
68193;BME280;55012;47.562;18.414;2023-02-23T14:24:34;98213.66;;;11.28;100.00
68193;BME280;55012;47.562;18.414;2023-02-23T14:26:38;98193.53;;;11.25;100.00
68193;BME280;55012;47.562;18.414;2023-02-23T14:34:54;98162.88;;;11.14;100.00
68193;BME280;55012;47.562;18.414;2023-02-23T14:40:28;98159.00;;;11.12;100.00
68193;BME280;55012;47.562;18.414;2023-02-23T14:42:57;98151.66;;;11.12;100.00
68193;BME280;55012;47.562;18.414;2023-02-23T14:45:27;98153.97;;;11.10;100.00
68193;BME280;55012;47.562;18.414;2023-02-23T14:48:12;98142.72;;;11.08;100.00
68193;BME280;55012;47.562;18.414;2023-02-23T14:50:40;98132.66;;;11.05;100.00
68193;BME280;55012;47.562;18.414;2023-02-23T14:53:15;98130.34;;;11.07;100.00
68193;BME280;55012;47.562;18.414;2023-02-23T14:55:42;98129.94;;;11.05;100.00
68193;BME280;55012;47.562;18.414;2023-02-23T14:58:27;98125.25;;;10.98;100.00
68193;BME280;55012;47.562;18.414;2023-02-23T15:00:54;98110.47;;;10.89;100.00
68193;BME280;55012;47.562;18.414;2023-02-23T15:03:20;98114.72;;;10.90;100.00
68193;BME280;55012;47.562;18.414;2023-02-23T15:05:56;98106.22;;;10.88;100.00
68193;BME280;55012;47.562;18.414;2023-02-23T15:08:25;98106.19;;;10.84;100.00
68193;BME280;55012;47.562;18.414;2023-02-23T15:11:05;98091.84;;;10.77;100.00
68193;BME280;55012;47.562;18.414;2023-02-23T15:13:38;98082.03;;;10.61;100.00
68193;BME280;55012;47.562;18.414;2023-02-23T15:16:20;98073.44;;;10.52;100.00
68193;BME280;55012;47.562;18.414;2023-02-23T15:18:47;98044.81;;;10.48;100.00
68193;BME280;55012;47.562;18.414;2023-02-23T15:21:17;97993.38;;;10.40;100.00